Time;durP1;ratioP1;P1;durP2;ratioP2;P2;SDS_P1;SDS_P2;PMS_P1;PMS_P2;Temp;Humidity;BMP_temperature;BMP_pressure;BME280_temperature;BME280_humidity;BME280_pressure;Samples;Min_cycle;Max_cycle;Signal;HPM_P1;HPM_P2
2022/12/21 00:01:41;;;;;;;99.80;31.73;;;6.00;99.90;;;;;;5058372;28;20028;-65
2022/12/21 00:04:08;;;;;;;114.40;33.30;;;6.20;99.90;;;;;;5055834;28;20040;-65
2022/12/21 00:06:36;;;;;;;103.35;32.15;;;5.80;99.90;;;;;;5058695;28;20040;-65
2022/12/21 00:09:04;;;;;;;104.15;32.85;;;5.90;99.90;;;;;;5041893;28;20047;-65
2022/12/21 00:11:32;;;;;;;153.57;38.22;;;5.50;99.90;;;;;;5060526;28;20052;-65
2022/12/21 00:13:59;;;;;;;96.93;31.65;;;5.60;99.90;;;;;;5059368;28;20505;-65
2022/12/21 00:16:27;;;;;;;71.70;25.83;;;5.60;99.90;;;;;;5056117;28;20073;-65
2022/12/21 00:18:53;;;;;;;166.82;39.85;;;5.30;99.90;;;;;;5051661;28;20028;-65
2022/12/21 00:21:31;;;;;;;152.85;35.30;;;6.20;99.90;;;;;;5059315;28;20043;-65
2022/12/21 00:23:58;;;;;;;124.00;33.55;;;5.50;99.90;;;;;;5052632;28;20062;-65
2022/12/21 00:26:28;;;;;;;77.47;28.52;;;5.60;99.90;;;;;;5044392;28;20051;-65
2022/12/21 00:28:55;;;;;;;138.30;34.22;;;5.40;99.90;;;;;;5053511;28;20232;-65
2022/12/21 00:31:24;;;;;;;175.73;40.60;;;5.20;99.90;;;;;;5060377;28;20085;-65
2022/12/21 00:33:50;;;;;;;73.78;27.08;;;5.30;99.90;;;;;;5052493;28;20025;-65
2022/12/21 00:36:18;;;;;;;56.90;22.73;;;4.80;99.90;;;;;;5059485;28;20518;-65
2022/12/21 00:38:48;;;;;;;65.32;24.85;;;5.20;99.90;;;;;;5055536;28;20036;-65
2022/12/21 00:41:16;;;;;;;60.83;24.52;;;4.60;99.90;;;;;;5057365;28;20086;-65
2022/12/21 00:43:43;;;;;;;76.03;27.08;;;4.90;99.90;;;;;;5062181;28;20041;-65
2022/12/21 00:46:21;;;;;;;128.52;35.45;;;5.40;99.90;;;;;;5060563;28;20044;-63
2022/12/21 00:48:47;;;;;;;170.63;43.33;;;4.50;99.90;;;;;;5037074;28;20079;-63
2022/12/21 00:51:15;;;;;;;103.72;29.27;;;4.70;99.90;;;;;;5035216;28;20130;-63
2022/12/21 00:53:41;;;;;;;78.93;28.55;;;4.70;99.90;;;;;;5058131;28;20401;-63
2022/12/21 00:56:08;;;;;;;116.28;36.40;;;4.40;99.90;;;;;;5055600;28;20037;-63
2022/12/21 00:58:35;;;;;;;78.18;28.08;;;4.80;99.90;;;;;;5065656;28;20036;-63
2022/12/21 01:01:08;;;;;;;58.13;24.75;;;4.40;99.90;;;;;;5056572;28;20028;-64
2022/12/21 01:03:34;;;;;;;77.00;28.20;;;4.60;99.90;;;;;;5052604;28;20044;-64
2022/12/21 01:06:00;;;;;;;69.57;28.20;;;4.50;99.90;;;;;;5057529;28;20444;-63
2022/12/21 01:08:25;;;;;;;70.32;27.35;;;4.40;99.90;;;;;;5057264;28;20090;-64
2022/12/21 01:11:02;;;;;;;105.65;34.10;;;;;;;;;;5053953;28;20041;-64
2022/12/21 01:13:28;;;;;;;117.60;34.92;;;4.40;99.90;;;;;;5056106;28;20045;-64
2022/12/21 01:15:54;;;;;;;159.65;40.78;;;3.70;99.90;;;;;;5051477;28;20044;-64
2022/12/21 01:18:20;;;;;;;145.27;38.33;;;4.50;99.90;;;;;;5051896;28;20167;-64
2022/12/21 01:20:48;;;;;;;148.52;40.28;;;4.10;99.90;;;;;;5055535;28;20036;-64
2022/12/21 01:23:15;;;;;;;141.40;36.75;;;4.00;99.90;;;;;;5051790;28;20047;-64
2022/12/21 01:25:43;;;;;;;137.43;38.05;;;4.10;99.90;;;;;;5063293;28;20045;-64
2022/12/21 01:28:09;;;;;;;108.97;33.42;;;3.70;99.90;;;;;;5038129;28;20388;-64
2022/12/21 01:30:36;;;;;;;172.40;41.22;;;;;;;;;;5058598;28;20132;-64
2022/12/21 01:33:01;;;;;;;124.70;33.60;;;3.70;99.90;;;;;;5057646;28;20475;-64
2022/12/21 01:35:27;;;;;;;107.72;32.40;;;3.40;99.90;;;;;;5062646;28;20107;-64
2022/12/21 01:37:52;;;;;;;217.95;47.33;;;3.20;99.90;;;;;;5036042;28;20035;-64
2022/12/21 01:40:18;;;;;;;253.40;52.05;;;3.80;99.90;;;;;;5060855;28;20044;-64
2022/12/21 01:42:44;;;;;;;150.40;36.47;;;3.10;99.90;;;;;;5053564;28;20230;-64
2022/12/21 01:45:29;;;;;;;186.35;42.33;;;3.40;99.90;;;;;;5058228;28;20036;-64
2022/12/21 01:48:00;;;;;;;162.18;40.35;;;3.00;99.90;;;;;;5064646;28;20112;-64
2022/12/21 01:50:44;;;;;;;190.85;44.53;;;2.90;99.90;;;;;;5055088;28;20036;-64
2022/12/21 01:53:13;;;;;;;192.82;40.63;;;;;;;;;;5042100;28;20078;-64
2022/12/21 01:55:39;;;;;;;121.35;32.30;;;3.30;99.90;;;;;;5036031;28;20032;-64
2022/12/21 01:58:07;;;;;;;130.75;33.13;;;3.40;99.90;;;;;;5054196;28;20067;-64
2022/12/21 02:00:32;;;;;;;163.73;40.45;;;3.30;99.90;;;;;;5055398;28;20094;-64
2022/12/21 02:03:04;;;;;;;105.63;33.15;;;3.10;99.90;;;;;;5054263;28;20032;-64
2022/12/21 02:05:57;;;;;;;136.80;36.28;;;3.00;99.90;;;;;;5061939;28;20067;-64
2022/12/21 02:08:23;;;;;;;149.73;39.50;;;3.80;99.90;;;;;;5056219;28;20045;-65
2022/12/21 02:10:50;;;;;;;165.45;38.50;;;2.90;99.90;;;;;;5057963;28;20532;-64
2022/12/21 02:13:16;;;;;;;138.30;35.58;;;3.20;99.90;;;;;;5053488;28;20041;-64
2022/12/21 02:15:54;;;;;;;138.23;36.10;;;3.20;99.90;;;;;;5042610;28;20648;-64
2022/12/21 02:18:24;;;;;;;131.90;34.78;;;;;;;;;;5050590;28;20047;-64
2022/12/21 02:20:53;;;;;;;184.35;40.00;;;;;;;;;;5059625;28;20095;-64
2022/12/21 02:23:25;;;;;;;225.63;44.05;;;;;;;;;;5059880;28;20037;-64
2022/12/21 02:26:10;;;;;;;206.70;44.78;;;;;;;;;;5057683;28;20083;-64
2022/12/21 02:28:51;;;;;;;205.63;42.40;;;;;;;;;;5055370;28;20059;-64
2022/12/21 02:31:22;;;;;;;187.40;42.90;;;3.10;99.90;;;;;;5063275;28;20040;-64
2022/12/21 02:34:03;;;;;;;152.35;36.03;;;3.20;99.90;;;;;;5061365;28;20049;-64
2022/12/21 02:36:38;;;;;;;185.48;44.95;;;;;;;;;;5056908;28;20058;-64
2022/12/21 02:39:17;;;;;;;138.25;37.20;;;;;;;;;;5056810;28;20455;-64
2022/12/21 02:41:57;;;;;;;147.75;38.63;;;;;;;;;;5060452;28;20055;-64
2022/12/21 02:44:33;;;;;;;174.40;42.10;;;;;;;;;;5057549;28;20067;-65
2022/12/21 02:47:28;;;;;;;239.43;49.03;;;;;;;;;;5035843;28;20105;-64
2022/12/21 02:49:54;;;;;;;;;;;3.00;99.90;;;;;;5034094;28;20087;-65
2022/12/21 02:52:33;;;;;;;199.82;42.53;;;;;;;;;;5055477;28;19967;-65
2022/12/21 02:55:00;;;;;;;247.50;50.10;;;;;;;;;;5040328;28;20032;-65
2022/12/21 02:57:32;;;;;;;254.20;45.83;;;;;;;;;;5057471;28;20120;-65
2022/12/21 02:59:58;;;;;;;252.90;49.70;;;;;;;;;;5058130;28;20107;-65
2022/12/21 03:02:24;;;;;;;242.73;48.95;;;;;;;;;;5039925;28;20111;-65
2022/12/21 03:05:12;;;;;;;304.20;53.20;;;3.20;99.90;;;;;;5052744;28;20040;-65
2022/12/21 03:07:57;;;;;;;298.70;57.83;;;;;;;;;;5038949;28;20047;-65
2022/12/21 03:11:00;;;;;;;301.17;56.33;;;3.70;99.90;;;;;;5056120;28;20166;-64
2022/12/21 03:13:55;;;;;;;214.48;44.28;;;;;;;;;;5054321;28;20041;-65
2022/12/21 03:16:34;;;;;;;205.20;42.42;;;2.70;99.90;;;;;;5030499;28;20044;-65
2022/12/21 03:19:18;;;;;;;285.27;52.03;;;3.10;99.90;;;;;;5059546;28;20024;-65
2022/12/21 03:22:00;;;;;;;188.38;37.78;;;3.30;99.90;;;;;;5064573;28;20102;-65
2022/12/21 03:24:31;;;;;;;262.17;53.22;;;;;;;;;;5055642;28;20032;-64
2022/12/21 03:27:02;;;;;;;196.73;43.95;;;3.60;99.90;;;;;;5041620;28;20041;-64
2022/12/21 03:29:36;;;;;;;185.02;43.05;;;3.80;99.90;;;;;;5051817;28;20037;-64
2022/12/21 03:32:09;;;;;;;127.32;34.35;;;3.30;99.90;;;;;;5060610;28;20045;-65
2022/12/21 03:34:36;;;;;;;262.45;57.67;;;;;;;;;;5055091;28;20051;-64
2022/12/21 03:37:08;;;;;;;209.35;47.08;;;;;;;;;;5054393;28;20084;-65
2022/12/21 03:39:37;;;;;;;198.98;44.78;;;;;;;;;;5057610;28;20048;-65
2022/12/21 03:42:09;;;;;;;187.50;43.15;;;;;;;;;;5063031;28;20033;-65
2022/12/21 03:44:40;;;;;;;122.97;34.95;;;2.70;99.90;;;;;;5053392;28;20052;-65
2022/12/21 03:47:10;;;;;;;252.63;51.60;;;;;;;;;;5054538;28;20175;-65
2022/12/21 03:49:41;;;;;;;154.30;37.63;;;3.30;99.90;;;;;;5064256;28;20037;-64
2022/12/21 03:52:14;;;;;;;236.77;47.15;;;3.60;99.90;;;;;;5055131;28;20559;-65
2022/12/21 03:54:43;;;;;;;159.55;38.38;;;;;;;;;;5051166;28;20036;-65
2022/12/21 03:57:10;;;;;;;195.80;44.30;;;3.00;99.90;;;;;;5048921;28;20033;-65
2022/12/21 03:59:40;;;;;;;194.98;43.25;;;3.40;99.90;;;;;;5053127;28;20033;-65
2022/12/21 04:02:32;;;;;;;111.88;29.05;;;3.30;99.90;;;;;;5064239;28;20033;-65
2022/12/21 04:05:06;;;;;;;174.85;37.72;;;;;;;;;;5052844;28;20037;-66
2022/12/21 04:07:35;;;;;;;121.35;30.23;;;3.20;99.90;;;;;;5059709;28;20033;-66
2022/12/21 04:10:04;;;;;;;163.35;32.78;;;;;;;;;;5033477;28;20044;-66
2022/12/21 04:12:39;;;;;;;161.40;34.50;;;2.90;99.90;;;;;;5068011;28;20109;-66
2022/12/21 04:15:20;;;;;;;124.28;31.60;;;3.30;99.90;;;;;;5053733;28;20043;-66
2022/12/21 04:17:48;;;;;;;110.72;25.85;;;;;;;;;;5061213;28;20498;-66
2022/12/21 04:20:16;;;;;;;122.57;28.90;;;;;;;;;;5068498;28;20116;-66
2022/12/21 04:28:14;;;;;;;117.47;27.50;;;;;;;;;;5053854;28;20045;-64
2022/12/21 04:30:42;;;;;;;109.85;27.73;;;3.20;99.90;;;;;;5056481;28;20037;-66
2022/12/21 04:33:09;;;;;;;96.40;25.45;;;;;;;;;;5055771;28;20052;-65
2022/12/21 04:35:35;;;;;;;101.03;26.90;;;3.00;99.90;;;;;;5068184;28;20068;-64
2022/12/21 04:38:01;;;;;;;115.28;27.42;;;3.20;99.90;;;;;;5068288;28;20048;-63
2022/12/21 04:40:28;;;;;;;63.55;20.77;;;;;;;;;;5041931;28;20521;-64
2022/12/21 04:42:53;;;;;;;96.63;25.17;;;3.00;99.90;;;;;;5019112;28;20074;-64
2022/12/21 04:45:20;;;;;;;99.78;25.50;;;3.40;99.90;;;;;;5058813;28;20041;-64
2022/12/21 04:47:46;;;;;;;79.20;21.80;;;3.30;99.90;;;;;;5053058;28;20603;-64
2022/12/21 04:50:11;;;;;;;80.43;23.73;;;3.90;99.90;;;;;;5067835;28;20079;-64
2022/12/21 04:52:37;;;;;;;94.70;24.75;;;3.40;99.90;;;;;;5058930;28;20410;-64
2022/12/21 04:55:03;;;;;;;95.50;26.08;;;3.00;99.90;;;;;;5057407;28;20402;-64
2022/12/21 04:57:29;;;;;;;111.55;27.35;;;;;;;;;;5056243;28;20143;-64
2022/12/21 04:59:55;;;;;;;126.93;30.38;;;3.50;99.90;;;;;;5053618;28;20040;-64
2022/12/21 05:02:21;;;;;;;103.55;25.55;;;3.10;99.90;;;;;;5062326;28;20412;-64
2022/12/21 05:04:47;;;;;;;111.63;27.40;;;3.90;99.90;;;;;;5052534;28;20033;-65
2022/12/21 05:07:12;;;;;;;101.70;23.98;;;3.50;99.90;;;;;;5041466;28;20043;-64
2022/12/21 05:09:38;;;;;;;157.88;29.77;;;3.30;99.90;;;;;;5051977;28;20094;-65
2022/12/21 05:12:04;;;;;;;103.78;26.63;;;3.80;99.90;;;;;;5061914;28;20302;-65
2022/12/21 05:14:29;;;;;;;167.57;30.15;;;3.80;99.90;;;;;;5059939;28;20486;-64
2022/12/21 05:16:55;;;;;;;97.65;25.67;;;;;;;;;;5056509;28;20418;-65
2022/12/21 05:19:21;;;;;;;97.78;25.73;;;3.50;99.90;;;;;;5061114;28;20036;-65
2022/12/21 05:21:47;;;;;;;86.03;23.85;;;4.00;99.90;;;;;;5060909;28;20085;-64
2022/12/21 05:24:12;;;;;;;117.25;26.92;;;3.50;99.90;;;;;;5060190;28;20091;-65
2022/12/21 05:26:38;;;;;;;174.68;34.33;;;3.40;99.90;;;;;;5036789;28;20068;-65
2022/12/21 05:29:04;;;;;;;159.27;32.08;;;3.60;99.90;;;;;;5056718;28;20039;-65
2022/12/21 05:31:30;;;;;;;144.02;29.08;;;3.30;99.90;;;;;;5062245;28;20037;-65
2022/12/21 05:33:55;;;;;;;148.27;30.00;;;4.00;99.90;;;;;;5060324;28;20037;-65
2022/12/21 05:36:22;;;;;;;206.23;36.95;;;3.40;99.90;;;;;;5059180;28;20060;-65
2022/12/21 05:38:48;;;;;;;238.57;39.65;;;;;;;;;;5060964;28;20036;-66
2022/12/21 05:41:15;;;;;;;164.63;30.38;;;3.60;99.90;;;;;;5036680;28;20091;-65
2022/12/21 05:43:41;;;;;;;205.30;34.10;;;3.20;99.90;;;;;;5065865;28;20045;-65
2022/12/21 05:46:08;;;;;;;246.50;36.63;;;;;;;;;;5060696;28;20436;-65
2022/12/21 05:48:34;;;;;;;193.93;32.58;;;3.50;99.90;;;;;;5067892;28;20041;-65
2022/12/21 05:51:05;;;;;;;264.23;38.50;;;;;;;;;;5052114;28;20385;-65
2022/12/21 05:53:31;;;;;;;222.98;34.92;;;3.30;99.90;;;;;;5053066;28;20047;-65
2022/12/21 05:55:57;;;;;;;223.82;34.38;;;3.90;99.90;;;;;;5062059;28;20033;-65
2022/12/21 05:58:23;;;;;;;120.18;23.88;;;;;;;;;;5055987;28;20482;-66
2022/12/21 06:00:48;;;;;;;213.15;31.52;;;3.50;99.90;;;;;;5053678;28;20048;-65
2022/12/21 06:03:14;;;;;;;174.20;27.00;;;3.70;99.90;;;;;;5039688;28;20094;-66
2022/12/21 06:05:40;;;;;;;162.32;28.58;;;3.70;99.90;;;;;;5058987;28;20486;-66
2022/12/21 06:08:06;;;;;;;205.35;33.05;;;4.00;99.90;;;;;;5057168;28;20036;-65
2022/12/21 06:10:34;;;;;;;149.90;27.33;;;3.30;99.90;;;;;;5044615;28;20544;-66
2022/12/21 06:12:59;;;;;;;136.80;26.90;;;4.10;99.90;;;;;;5061002;28;20042;-66
2022/12/21 06:15:25;;;;;;;152.88;29.15;;;3.60;99.90;;;;;;5054226;28;20029;-66
2022/12/21 06:17:51;;;;;;;161.90;29.67;;;3.60;99.90;;;;;;5052721;28;20435;-66
2022/12/21 06:20:17;;;;;;;152.13;30.35;;;3.50;99.90;;;;;;5056450;28;20494;-66
2022/12/21 06:22:42;;;;;;;140.43;28.02;;;3.50;99.90;;;;;;5035584;28;20478;-66
2022/12/21 06:25:09;;;;;;;97.88;23.83;;;3.50;99.90;;;;;;5044757;28;20044;-67
2022/12/21 06:27:35;;;;;;;127.22;27.15;;;3.20;99.90;;;;;;5057388;28;20052;-66
2022/12/21 06:30:00;;;;;;;148.50;31.27;;;3.50;99.90;;;;;;5062715;28;20037;-66
2022/12/21 06:32:26;;;;;;;128.93;28.20;;;3.50;99.90;;;;;;5058216;28;20037;-67
2022/12/21 06:34:51;;;;;;;108.22;25.38;;;3.30;99.90;;;;;;5045105;28;20051;-66
2022/12/21 06:37:17;;;;;;;114.43;25.58;;;3.50;99.90;;;;;;5060046;28;20666;-67
2022/12/21 06:39:42;;;;;;;190.07;34.38;;;3.20;99.90;;;;;;5050315;28;20043;-67
2022/12/21 06:42:08;;;;;;;139.82;29.02;;;3.50;99.90;;;;;;5040313;28;20040;-67
2022/12/21 06:44:34;;;;;;;160.13;33.47;;;3.50;99.90;;;;;;5047239;28;20516;-67
2022/12/21 06:47:01;;;;;;;159.68;32.42;;;;;;;;;;5057566;28;20130;-67
2022/12/21 06:49:27;;;;;;;188.38;33.95;;;3.90;99.90;;;;;;5048318;28;20060;-67
2022/12/21 06:51:52;;;;;;;198.25;35.72;;;3.70;99.90;;;;;;5038800;28;20041;-67
2022/12/21 06:54:18;;;;;;;142.68;31.42;;;3.60;99.90;;;;;;5064287;28;20398;-67
2022/12/21 06:56:44;;;;;;;177.60;32.97;;;3.60;99.90;;;;;;5042680;28;20032;-67
2022/12/21 06:59:09;;;;;;;134.30;28.52;;;3.60;99.90;;;;;;5060239;28;20032;-67
2022/12/21 07:01:35;;;;;;;190.55;34.70;;;3.80;99.90;;;;;;5052902;28;20032;-67
2022/12/21 07:04:01;;;;;;;232.02;41.33;;;3.50;99.90;;;;;;5062737;28;20068;-67
2022/12/21 07:06:29;;;;;;;152.65;35.38;;;3.60;99.90;;;;;;5051589;28;20083;-67
2022/12/21 07:08:56;;;;;;;138.98;31.58;;;3.80;99.90;;;;;;5066448;28;20047;-67
2022/12/21 07:11:24;;;;;;;213.57;42.42;;;3.40;99.90;;;;;;5042568;28;20056;-67
2022/12/21 07:13:52;;;;;;;81.88;25.63;;;3.90;99.90;;;;;;5041585;28;20075;-67
2022/12/21 07:16:19;;;;;;;93.05;25.50;;;4.30;99.90;;;;;;5063835;28;20522;-66
2022/12/21 07:18:44;;;;;;;123.50;28.55;;;4.00;99.90;;;;;;5061336;28;20062;-67
2022/12/21 07:21:13;;;;;;;100.63;26.05;;;3.90;99.90;;;;;;5058478;28;20071;-67
2022/12/21 07:23:39;;;;;;;95.75;27.77;;;3.90;99.90;;;;;;5040967;28;20411;-67
2022/12/21 07:26:07;;;;;;;92.75;25.33;;;3.50;99.90;;;;;;5046268;28;20101;-66
2022/12/21 07:28:33;;;;;;;126.43;32.47;;;3.80;99.90;;;;;;5042228;28;20098;-67
2022/12/21 07:31:03;;;;;;;90.50;27.60;;;3.90;99.90;;;;;;5059107;28;20040;-66
2022/12/21 07:33:29;;;;;;;93.75;26.85;;;4.00;99.90;;;;;;5042869;28;20684;-67
2022/12/21 07:36:02;;;;;;;97.72;28.05;;;3.40;99.90;;;;;;5056490;28;20037;-67
2022/12/21 07:38:29;;;;;;;85.72;27.20;;;3.70;99.90;;;;;;5043731;28;20075;-67
2022/12/21 07:40:58;;;;;;;119.55;30.20;;;4.20;99.90;;;;;;5059528;28;20037;-66
2022/12/21 07:43:24;;;;;;;123.75;31.33;;;4.20;99.90;;;;;;5040587;28;20097;-67
2022/12/21 07:45:50;;;;;;;104.75;31.25;;;4.00;99.90;;;;;;5035878;28;20036;-67
2022/12/21 07:48:16;;;;;;;136.07;37.67;;;4.00;99.90;;;;;;5047625;28;20380;-66
2022/12/21 07:50:41;;;;;;;110.90;32.10;;;4.40;99.90;;;;;;5046567;28;20036;-66
2022/12/21 07:53:07;;;;;;;140.85;35.53;;;;;;;;;;5032551;28;20045;-66
2022/12/21 07:55:33;;;;;;;168.55;38.53;;;4.30;99.90;;;;;;5052656;28;20150;-67
2022/12/21 07:58:00;;;;;;;163.88;40.58;;;4.40;99.90;;;;;;5052545;28;20051;-66
2022/12/21 08:00:26;;;;;;;134.80;36.55;;;4.20;99.90;;;;;;5053274;28;20502;-66
2022/12/21 08:02:51;;;;;;;157.75;40.33;;;4.40;99.90;;;;;;5040125;28;20041;-66
2022/12/21 08:05:19;;;;;;;116.55;34.30;;;;;;;;;;5050654;28;20040;-66
2022/12/21 08:07:44;;;;;;;93.65;32.50;;;3.70;99.90;;;;;;5050614;28;20262;-66
2022/12/21 08:10:10;;;;;;;116.47;36.70;;;4.40;99.90;;;;;;5053993;28;20033;-66
2022/12/21 08:12:36;;;;;;;105.70;35.55;;;4.60;99.90;;;;;;5052450;28;20040;-67
2022/12/21 08:15:02;;;;;;;163.05;47.97;;;4.60;99.90;;;;;;5036502;28;20037;-67
2022/12/21 08:17:28;;;;;;;121.80;39.95;;;4.60;99.90;;;;;;5054879;28;20757;-67
2022/12/21 08:19:53;;;;;;;143.77;45.25;;;5.20;99.90;;;;;;5038901;28;20037;-67
2022/12/21 08:22:19;;;;;;;80.00;30.92;;;4.60;99.90;;;;;;5052145;28;20037;-67
2022/12/21 08:24:44;;;;;;;133.95;42.40;;;5.40;99.90;;;;;;5036372;28;20064;-67
2022/12/21 08:27:10;;;;;;;122.97;39.85;;;5.40;99.90;;;;;;5049621;28;20072;-67
2022/12/21 08:29:37;;;;;;;168.52;49.22;;;;;;;;;;5047648;28;20037;-67
2022/12/21 08:32:03;;;;;;;158.65;48.38;;;4.90;99.90;;;;;;5052632;28;20073;-67
2022/12/21 08:34:29;;;;;;;167.85;47.95;;;5.20;99.90;;;;;;5034733;28;20124;-67
2022/12/21 08:36:55;;;;;;;245.55;61.90;;;;;;;;;;5051580;28;20192;-67
2022/12/21 08:39:21;;;;;;;282.33;62.88;;;5.00;99.90;;;;;;5033380;28;20048;-67
2022/12/21 08:41:47;;;;;;;213.27;57.20;;;4.90;99.90;;;;;;5038143;28;20036;-67
2022/12/21 08:44:12;;;;;;;177.77;51.78;;;4.80;99.90;;;;;;5043233;28;20406;-67
2022/12/21 08:46:38;;;;;;;134.52;42.50;;;5.60;99.90;;;;;;5009316;28;1095745;-67
2022/12/21 08:49:04;;;;;;;143.93;47.83;;;5.00;99.90;;;;;;5050575;28;20159;-67
2022/12/21 08:51:30;;;;;;;149.98;46.38;;;5.10;99.90;;;;;;5070121;28;20044;-67
2022/12/21 08:53:56;;;;;;;185.93;52.28;;;5.20;99.90;;;;;;5058559;28;20036;-68
2022/12/21 08:56:22;;;;;;;162.82;48.17;;;4.90;99.90;;;;;;5067949;28;20386;-67
2022/12/21 08:58:48;;;;;;;143.20;44.67;;;4.90;99.90;;;;;;5056453;28;20508;-67
2022/12/21 09:01:20;;;;;;;174.23;49.85;;;5.00;99.90;;;;;;5073687;28;20507;-67
2022/12/21 09:03:46;;;;;;;101.50;40.58;;;5.60;99.90;;;;;;5064453;28;20028;-67
2022/12/21 09:06:12;;;;;;;171.52;50.42;;;5.40;99.90;;;;;;5056821;28;20044;-69
2022/12/21 09:08:39;;;;;;;135.85;45.65;;;4.90;99.90;;;;;;5064090;28;20043;-67
2022/12/21 09:11:07;;;;;;;133.77;44.60;;;5.30;99.90;;;;;;5050639;28;20101;-67
2022/12/21 09:13:33;;;;;;;109.65;42.42;;;5.10;99.90;;;;;;5046807;28;20045;-67
2022/12/21 09:15:59;;;;;;;111.10;39.35;;;5.30;99.90;;;;;;5062892;28;20040;-66
2022/12/21 09:18:25;;;;;;;142.05;51.28;;;5.60;99.90;;;;;;5063981;28;20045;-67
2022/12/21 09:20:50;;;;;;;142.48;48.85;;;5.70;99.90;;;;;;5071317;28;20032;-67
2022/12/21 09:23:16;;;;;;;153.15;45.33;;;5.60;99.90;;;;;;5064475;28;20044;-67
2022/12/21 09:25:42;;;;;;;144.50;45.42;;;5.50;99.90;;;;;;5040631;28;20130;-66
2022/12/21 09:28:07;;;;;;;144.98;44.08;;;5.60;99.90;;;;;;5062721;28;20395;-67
2022/12/21 09:30:33;;;;;;;126.50;40.83;;;5.30;99.90;;;;;;5060909;28;20032;-67
2022/12/21 09:32:59;;;;;;;133.02;43.75;;;5.80;99.90;;;;;;5065480;28;20042;-66
2022/12/21 09:35:24;;;;;;;116.32;39.92;;;5.70;99.90;;;;;;5046047;28;20036;-66
2022/12/21 09:37:51;;;;;;;136.60;42.80;;;5.10;99.90;;;;;;5064740;28;20037;-66
2022/12/21 09:40:20;;;;;;;135.35;42.55;;;5.70;99.90;;;;;;5057221;28;20040;-66
2022/12/21 09:42:52;;;;;;;105.30;39.78;;;5.60;99.90;;;;;;5053365;28;20051;-66
2022/12/21 09:45:48;;;;;;;96.15;36.60;;;5.60;99.90;;;;;;5049449;28;20060;-66
2022/12/21 09:48:30;;;;;;;80.03;33.50;;;5.80;99.90;;;;;;5057206;28;20032;-66
2022/12/21 09:51:05;;;;;;;93.35;34.88;;;5.70;99.90;;;;;;5060283;28;20398;-66
2022/12/21 09:53:56;;;;;;;89.97;33.97;;;5.20;99.90;;;;;;5065474;28;20497;-67
2022/12/21 09:56:24;;;;;;;90.72;31.70;;;5.90;99.90;;;;;;5038337;28;20049;-66
2022/12/21 09:58:52;;;;;;;80.38;30.67;;;5.60;99.90;;;;;;5059173;28;20104;-67
2022/12/21 10:01:27;;;;;;;76.93;29.83;;;5.10;99.90;;;;;;5051711;28;20044;-67
2022/12/21 10:04:12;;;;;;;75.30;27.20;;;;;;;;;;5054751;28;20127;-67
2022/12/21 10:06:56;;;;;;;94.68;27.90;;;;;;;;;;5056904;28;20040;-67
2022/12/21 10:09:46;;;;;;;101.22;29.50;;;5.30;99.90;;;;;;5055430;28;20041;-67
2022/12/21 10:12:30;;;;;;;99.55;30.80;;;5.60;99.90;;;;;;5054366;28;20092;-67
2022/12/21 10:15:02;;;;;;;72.60;27.43;;;;;;;;;;5042764;28;20040;-67
2022/12/21 10:17:40;;;;;;;84.68;29.80;;;5.70;99.90;;;;;;5057070;28;20115;-67
2022/12/21 10:20:29;;;;;;;98.97;30.67;;;5.40;99.90;;;;;;5057065;28;20566;-67
2022/12/21 10:23:00;;;;;;;87.93;27.10;;;5.40;99.90;;;;;;5022932;28;20090;-67
2022/12/21 10:25:44;;;;;;;102.20;30.02;;;5.90;99.90;;;;;;5058429;28;20447;-67
2022/12/21 10:28:30;;;;;;;79.37;26.73;;;5.80;99.90;;;;;;5054370;28;20413;-66
2022/12/21 10:31:04;;;;;;;89.60;27.88;;;;;;;;;;5052308;28;20372;-67
2022/12/21 10:33:30;;;;;;;75.55;28.40;;;5.60;99.90;;;;;;5061935;28;20120;-67
2022/12/21 10:36:02;;;;;;;85.05;27.70;;;6.00;99.90;;;;;;5053687;28;20068;-68
2022/12/21 10:38:32;;;;;;;81.57;27.58;;;5.80;99.90;;;;;;5057754;28;20394;-67
2022/12/21 10:40:58;;;;;;;74.35;25.63;;;6.10;99.90;;;;;;5036606;28;20037;-67
2022/12/21 10:43:25;;;;;;;91.57;31.75;;;;;;;;;;5060661;28;20044;-67
2022/12/21 10:45:50;;;;;;;87.70;31.42;;;5.90;99.90;;;;;;5044846;28;20432;-67
2022/12/21 10:48:17;;;;;;;104.07;32.75;;;6.10;99.90;;;;;;5058847;28;20039;-67
2022/12/21 10:50:50;;;;;;;89.65;32.10;;;6.00;99.90;;;;;;5061035;28;20132;-67
2022/12/21 10:53:18;;;;;;;96.90;33.05;;;6.00;99.90;;;;;;5058723;28;20083;-67
2022/12/21 10:55:45;;;;;;;86.30;30.05;;;6.10;99.90;;;;;;5043638;28;20040;-67
2022/12/21 10:58:21;;;;;;;93.65;32.90;;;6.20;99.90;;;;;;5060720;28;20505;-66
2022/12/21 11:01:02;;;;;;;89.57;29.98;;;6.10;99.90;;;;;;5068772;28;20150;-67
2022/12/21 11:03:31;;;;;;;77.95;28.90;;;6.10;99.90;;;;;;5044003;28;20045;-67
2022/12/21 11:05:57;;;;;;;80.28;30.42;;;6.00;99.90;;;;;;5038457;28;20115;-67
2022/12/21 11:08:29;;;;;;;80.88;32.50;;;5.90;99.90;;;;;;5057738;28;20095;-67
2022/12/21 11:10:58;;;;;;;80.95;30.35;;;5.80;99.90;;;;;;5065266;28;20048;-67
2022/12/21 11:13:27;;;;;;;67.63;27.48;;;6.10;99.90;;;;;;5045211;28;20045;-67
2022/12/21 11:16:09;;;;;;;63.40;25.42;;;6.00;99.90;;;;;;5054338;28;20075;-67
2022/12/21 11:18:37;;;;;;;78.28;29.55;;;6.70;99.90;;;;;;5056508;28;20041;-67
2022/12/21 11:21:11;;;;;;;61.28;27.08;;;6.10;99.90;;;;;;5062766;28;20112;-66
2022/12/21 11:23:37;;;;;;;70.35;28.02;;;5.70;99.90;;;;;;5037346;28;20497;-67
2022/12/21 11:26:12;;;;;;;68.20;28.80;;;6.20;99.90;;;;;;5059534;28;20047;-67
2022/12/21 11:28:38;;;;;;;69.25;29.55;;;6.10;99.90;;;;;;5054251;28;20478;-66
2022/12/21 11:31:05;;;;;;;62.50;28.50;;;6.80;99.90;;;;;;5041009;28;20132;-66
2022/12/21 11:33:32;;;;;;;72.47;32.78;;;6.00;99.90;;;;;;5048369;28;20072;-66
2022/12/21 11:36:10;;;;;;;60.50;27.67;;;6.80;99.90;;;;;;5052076;28;20029;-66
2022/12/21 11:38:37;;;;;;;65.60;28.75;;;7.30;99.90;;;;;;5058555;28;20038;-67
2022/12/21 11:41:17;;;;;;;64.13;29.15;;;7.60;99.90;;;;;;5055436;28;20037;-67
2022/12/21 11:43:50;;;;;;;60.03;29.38;;;7.80;99.90;;;;;;5062248;28;20078;-66
2022/12/21 11:46:34;;;;;;;53.80;27.08;;;8.90;99.90;;;;;;5033604;28;20045;-66
2022/12/21 11:49:14;;;;;;;54.10;24.00;;;9.10;99.90;;;;;;5037855;28;20123;-67
2022/12/21 11:51:54;;;;;;;42.72;22.13;;;9.30;99.90;;;;;;5051238;28;20094;-66
2022/12/21 11:54:36;;;;;;;46.42;22.85;;;9.90;99.90;;;;;;5054561;28;20048;-66
2022/12/21 11:57:24;;;;;;;42.92;20.83;;;11.00;99.90;;;;;;5040470;28;20121;-66
2022/12/21 12:00:07;;;;;;;33.05;17.75;;;10.90;99.90;;;;;;5058403;28;20067;-66
2022/12/21 12:02:48;;;;;;;28.00;13.77;;;11.40;99.90;;;;;;5069338;28;20036;-66
2022/12/21 12:05:44;;;;;;;23.80;13.50;;;11.20;99.90;;;;;;5037957;28;20040;-66
2022/12/21 12:08:20;;;;;;;23.08;12.93;;;10.70;99.90;;;;;;5068584;28;20044;-66
2022/12/21 12:10:57;;;;;;;24.35;12.43;;;10.90;99.90;;;;;;5054818;28;20033;-66
2022/12/21 12:14:00;;;;;;;22.98;12.68;;;11.80;99.90;;;;;;5045724;28;20494;-66
2022/12/21 12:16:47;;;;;;;22.85;12.45;;;11.30;99.90;;;;;;5044402;28;20055;-66
2022/12/21 12:19:52;;;;;;;26.15;13.40;;;11.00;99.90;;;;;;5055931;28;20050;-66
2022/12/21 12:23:03;;;;;;;21.58;11.65;;;11.40;99.90;;;;;;5067903;28;20032;-66
2022/12/21 12:25:40;;;;;;;25.10;12.98;;;10.20;99.90;;;;;;5031372;28;20049;-66
2022/12/21 12:28:27;;;;;;;28.65;15.70;;;9.50;99.90;;;;;;5067975;28;20040;-66
2022/12/21 12:31:18;;;;;;;24.85;13.93;;;9.40;99.90;;;;;;5063849;28;20037;-66
2022/12/21 12:33:53;;;;;;;29.63;15.50;;;8.40;99.90;;;;;;5045469;28;20075;-66
2022/12/21 12:36:21;;;;;;;;;;;9.30;99.90;;;;;;5067122;28;20033;-66
2022/12/21 12:39:08;;;;;;;28.48;15.70;;;9.10;99.90;;;;;;5058862;28;19951;-65
2022/12/21 12:41:50;;;;;;;30.83;17.70;;;8.70;99.90;;;;;;5059422;28;20128;-66
2022/12/21 12:44:58;;;;;;;33.00;16.98;;;7.90;99.90;;;;;;5035568;28;20039;-67
2022/12/21 12:47:30;;;;;;;34.70;20.42;;;;;;;;;;5043988;28;20052;-66
2022/12/21 12:50:06;;;;;;;37.75;21.45;;;8.20;99.90;;;;;;5063874;28;20127;-66
2022/12/21 12:52:40;;;;;;;40.60;22.95;;;7.50;99.90;;;;;;5059418;28;20060;-66
2022/12/21 12:55:09;;;;;;;37.15;22.35;;;7.70;99.90;;;;;;5051965;28;20044;-67
2022/12/21 12:57:35;;;;;;;42.25;23.92;;;;;;;;;;5036843;28;20037;-66
2022/12/21 13:00:04;;;;;;;39.42;24.23;;;7.80;99.90;;;;;;5051779;28;20037;-66
2022/12/21 13:03:07;;;;;;;42.17;23.55;;;7.20;99.90;;;;;;5053106;28;20041;-66
2022/12/21 13:06:03;;;;;;;43.70;23.70;;;7.10;99.90;;;;;;5041424;28;20449;-66
2022/12/21 13:08:55;;;;;;;38.33;22.15;;;7.40;99.90;;;;;;5030956;28;20071;-66
2022/12/21 13:11:20;;;;;;;42.95;22.90;;;7.40;99.90;;;;;;5050945;28;20032;-66